Time;durP1;ratioP1;P1;durP2;ratioP2;P2;SDS_P1;SDS_P2;PMS_P1;PMS_P2;Temp;Humidity;BMP_temperature;BMP_pressure;BME280_temperature;BME280_humidity;BME280_pressure;Samples;Min_cycle;Max_cycle;Signal;HPM_P1;HPM_P2
2022/04/16 00:00:29;;;;;;;25.17;13.02;;;;;;;7.42;96.60;102504.91;5048522;28;20049;-84
2022/04/16 00:02:56;;;;;;;24.23;11.82;;;;;;;7.42;96.22;102516.19;5041742;28;20466;-84
2022/04/16 00:05:23;;;;;;;23.13;13.50;;;;;;;7.37;96.55;102516.91;5027161;28;20412;-84
2022/04/16 00:08:06;;;;;;;28.38;13.52;;;;;;;7.37;96.34;102516.91;5028796;28;20053;-84
2022/04/16 00:10:39;;;;;;;23.77;13.57;;;;;;;7.37;95.96;102522.97;5046309;28;20045;-84
2022/04/16 00:13:06;;;;;;;22.15;13.48;;;;;;;7.37;95.93;102528.19;5029250;28;20044;-83
2022/04/16 00:15:32;;;;;;;22.77;13.10;;;;;;;7.37;95.79;102525.59;5047457;28;20375;-84
2022/04/16 00:17:59;;;;;;;20.50;11.40;;;;;;;7.37;95.01;102525.59;5046584;28;20135;-86
2022/04/16 00:20:27;;;;;;;27.67;13.48;;;;;;;7.34;95.02;102530.69;5028550;28;20069;-84
2022/04/16 00:22:55;;;;;;;27.27;13.52;;;;;;;7.34;94.65;102528.09;5043285;28;20399;-84
2022/04/16 00:25:22;;;;;;;30.13;14.40;;;;;;;7.29;95.09;102532.25;5041208;28;20440;-85
2022/04/16 00:27:49;;;;;;;22.55;13.80;;;;;;;7.23;95.29;102537.25;5029530;28;20049;-84
2022/04/16 00:30:17;;;;;;;32.40;15.80;;;;;;;7.24;95.07;102532.09;5045323;28;20205;-84
2022/04/16 00:32:45;;;;;;;24.33;12.30;;;;;;;7.19;93.85;102535.38;5044552;28;20064;-83
2022/04/16 00:35:13;;;;;;;25.75;12.60;;;;;;;7.07;93.17;102528.00;5020595;28;20048;-84
2022/04/16 00:37:40;;;;;;;23.92;11.38;;;;;;;6.99;92.64;102532.03;5048616;28;20072;-84
2022/04/16 00:40:07;;;;;;;24.02;10.98;;;;;;;6.94;93.31;102540.56;5044003;28;20061;-84
2022/04/16 00:42:44;;;;;;;21.25;12.25;;;;;;;6.93;92.82;102540.53;5029428;28;20049;-83
2022/04/16 00:45:12;;;;;;;27.30;11.50;;;;;;;6.93;92.97;102543.13;5047916;28;20040;-84
2022/04/16 00:47:38;;;;;;;20.25;11.25;;;;;;;6.93;92.33;102538.78;5046985;28;20061;-83
2022/04/16 00:50:10;;;;;;;23.23;10.55;;;;;;;6.94;91.50;102544.91;5029494;28;20117;-83
2022/04/16 00:52:41;;;;;;;19.33;9.88;;;;;;;6.91;91.27;102539.56;5027262;28;20040;-84
2022/04/16 00:55:09;;;;;;;19.10;9.90;;;;;;;6.88;90.79;102536.84;5027446;28;20041;-84
2022/04/16 00:57:41;;;;;;;20.55;10.23;;;;;;;6.83;90.45;102538.41;5044814;28;20036;-84
2022/04/16 01:00:12;;;;;;;16.98;10.35;;;;;;;6.80;90.64;102539.19;5028243;28;20511;-84
2022/04/16 01:02:40;;;;;;;18.42;9.73;;;;;;;6.82;90.96;102549.63;5056891;28;20080;-84
2022/04/16 01:05:07;;;;;;;18.73;9.52;;;;;;;6.80;89.87;102539.19;5036241;28;20723;-85
2022/04/16 01:07:34;;;;;;;17.13;9.77;;;;;;;6.79;90.00;102537.41;5048999;28;20358;-84
2022/04/16 01:10:01;;;;;;;17.35;8.68;;;;;;;6.76;90.01;102540.78;5028617;28;20045;-83
2022/04/16 01:12:27;;;;;;;18.88;9.02;;;;;;;6.76;89.80;102542.50;5027988;28;20049;-84
2022/04/16 01:14:55;;;;;;;16.08;8.85;;;;;;;6.76;89.68;102545.09;5041410;28;20044;-86
2022/04/16 01:17:22;;;;;;;18.65;9.10;;;;;;;6.75;89.68;102553.75;5031546;28;20071;-86
2022/04/16 01:19:48;;;;;;;14.20;7.45;;;;;;;6.78;88.61;102559.94;5027674;28;20049;-83
2022/04/16 01:22:15;;;;;;;13.63;7.15;;;;;;;6.72;88.05;102569.25;5027936;28;20445;-85
2022/04/16 01:24:47;;;;;;;17.45;7.72;;;;;;;6.70;86.69;102560.47;5020247;28;20044;-84
2022/04/16 01:27:13;;;;;;;8.32;4.85;;;;;;;6.64;85.11;102566.34;5043449;28;20052;-83
2022/04/16 01:29:40;;;;;;;12.00;6.97;;;;;;;6.60;85.48;102569.69;5029458;28;20048;-85
2022/04/16 01:32:09;;;;;;;10.77;5.85;;;;;;;6.61;85.41;102579.25;5043074;28;20055;-84
2022/04/16 01:34:36;;;;;;;10.43;5.63;;;;;;;6.60;85.10;102577.47;5019081;28;20051;-83
2022/04/16 01:37:02;;;;;;;13.75;6.60;;;;;;;6.60;85.16;102574.88;5044709;28;20484;-85
2022/04/16 01:39:30;;;;;;;13.50;5.93;;;;;;;6.58;85.08;102586.94;5043954;28;20123;-85
2022/04/16 01:41:58;;;;;;;7.10;4.93;;;;;;;6.57;84.96;102586.06;5026982;28;20064;-84
2022/04/16 01:44:26;;;;;;;13.70;4.90;;;;;;;6.58;84.62;102581.72;5024562;28;20041;-83
2022/04/16 01:46:52;;;;;;;11.63;4.97;;;;;;;6.58;82.54;102582.63;5044649;28;20110;-83
2022/04/16 01:49:20;;;;;;;8.88;5.20;;;;;;;6.47;83.00;102583.91;5027205;28;20052;-85
2022/04/16 01:51:48;;;;;;;7.05;3.92;;;;;;;6.42;83.46;102594.13;5028060;28;20668;-85
2022/04/16 01:54:14;;;;;;;9.07;4.43;;;;;;;6.43;82.93;102589.84;5027753;28;20137;-85
2022/04/16 01:56:41;;;;;;;8.45;4.43;;;;;;;6.41;82.13;102596.69;5043066;28;20415;-85
2022/04/16 01:59:08;;;;;;;5.90;3.35;;;;;;;6.32;81.93;102591.13;5047987;28;20057;-85
2022/04/16 02:01:35;;;;;;;6.53;3.35;;;;;;;6.26;81.67;102594.38;5048465;28;20045;-85
2022/04/16 02:04:04;;;;;;;4.35;3.47;;;;;;;6.19;81.36;102592.34;5045317;28;20048;-85
2022/04/16 02:06:31;;;;;;;5.32;3.33;;;;;;;6.13;81.22;102593.84;5042541;28;20044;-85
2022/04/16 02:08:57;;;;;;;10.50;4.32;;;;;;;6.01;81.49;102592.47;5028498;28;20058;-85
2022/04/16 02:11:24;;;;;;;7.90;3.90;;;;;;;5.94;81.92;102592.22;5047524;28;20056;-85
2022/04/16 02:13:50;;;;;;;5.82;4.28;;;;;;;5.92;82.24;102591.25;5028762;28;20056;-85
2022/04/16 02:16:17;;;;;;;4.25;2.55;;;;;;;5.88;81.49;102597.13;5051357;28;20040;-84
2022/04/16 02:18:43;;;;;;;6.05;2.90;;;;;;;5.85;82.06;102604.78;5047403;28;20048;-85
2022/04/16 02:21:11;;;;;;;6.60;2.90;;;;;;;5.83;81.96;102605.56;5043198;28;20044;-85
2022/04/16 02:23:38;;;;;;;6.75;2.40;;;;;;;5.83;81.97;102616.84;5027129;28;20074;-85
2022/04/16 02:26:09;;;;;;;5.53;2.42;;;;;;;5.82;81.35;102615.06;5048054;28;20048;-84
2022/04/16 02:28:36;;;;;;;6.60;2.78;;;;;;;5.73;81.45;102615.56;5050501;28;20337;-85
2022/04/16 02:31:03;;;;;;;3.20;2.17;;;;;;;5.57;81.65;102620.94;5049036;28;20044;-85
2022/04/16 02:33:30;;;;;;;4.78;2.30;;;;;;;5.40;81.86;102620.19;5029012;28;20044;-85
2022/04/16 02:35:58;;;;;;;2.53;2.10;;;;;;;5.17;81.31;102626.97;5048063;28;20093;-85
2022/04/16 02:38:26;;;;;;;3.08;2.28;;;;;;;4.99;81.45;102635.66;5029765;28;20356;-85
2022/04/16 02:40:52;;;;;;;1.77;1.67;;;;;;;4.82;82.02;102634.88;5046384;28;20040;-85
2022/04/16 02:43:19;;;;;;;3.60;1.80;;;;;;;4.62;82.37;102640.03;5029871;28;20044;-85
2022/04/16 02:48:30;;;;;;;5.13;1.88;;;;;;;4.32;83.78;102641.16;5026938;28;20032;-85
2022/04/16 02:50:57;;;;;;;2.05;1.85;;;;;;;4.22;84.61;102647.59;5036287;28;20043;-85
2022/04/16 02:53:26;;;;;;;1.60;1.50;;;;;;;4.12;84.96;102656.63;5047204;28;20033;-85
2022/04/16 02:55:55;;;;;;;5.72;1.60;;;;;;;4.02;85.68;102655.28;5036706;28;20390;-85
2022/04/16 02:58:22;;;;;;;2.70;1.73;;;;;;;3.93;85.84;102654.81;5036070;28;20049;-85
2022/04/16 03:00:49;;;;;;;4.20;2.47;;;;;;;3.87;86.41;102651.91;5038166;28;20055;-85
2022/04/16 03:03:16;;;;;;;4.63;3.08;;;;;;;3.78;87.30;102658.41;5045870;28;20052;-85
2022/04/16 03:05:43;;;;;;;3.15;2.00;;;;;;;3.71;87.36;102658.00;5015397;28;20040;-85
2022/04/16 03:08:12;;;;;;;6.10;2.20;;;;;;;3.62;88.38;102661.91;5034638;28;20041;-85
2022/04/16 03:10:40;;;;;;;9.23;2.13;;;;;;;3.55;88.57;102670.16;5050537;28;20052;-85
2022/04/16 03:13:07;;;;;;;2.10;1.92;;;;;;;3.47;88.68;102674.03;5047786;28;20041;-85
2022/04/16 03:18:18;;;;;;;2.13;1.60;;;;;;;3.42;89.22;102680.69;5037118;28;20482;-85
2022/04/16 03:20:45;;;;;;;2.97;2.35;;;;;;;3.31;89.92;102678.41;5030850;28;20039;-85
2022/04/16 03:23:12;;;;;;;3.00;1.50;;;;;;;3.27;90.29;102681.66;5047296;28;20611;-85
2022/04/16 03:25:41;;;;;;;4.97;2.00;;;;;;;3.19;90.39;102682.91;5029788;28;20056;-85
2022/04/16 03:28:08;;;;;;;1.90;1.77;;;;;;;3.12;90.24;102685.97;5029836;28;20135;-85
2022/04/16 03:30:35;;;;;;;1.60;1.50;;;;;;;3.08;90.78;102690.09;5035269;28;20056;-85
2022/04/16 03:33:01;;;;;;;4.07;1.83;;;;;;;3.03;90.94;102688.06;5049761;28;20048;-84
2022/04/16 03:35:28;;;;;;;2.05;1.80;;;;;;;2.95;91.44;102692.81;5043841;28;20051;-85
2022/04/16 03:37:56;;;;;;;2.97;2.35;;;;;;;2.94;91.33;102693.63;5048949;28;20055;-85
2022/04/16 03:40:26;;;;;;;4.55;2.42;;;;;;;2.87;91.56;102704.41;5051267;28;20052;-85
2022/04/16 03:42:59;;;;;;;2.20;1.83;;;;;;;2.78;91.69;102695.34;5044715;28;20059;-85
2022/04/16 03:45:34;;;;;;;5.73;1.60;;;;;;;2.73;92.25;102701.97;5052136;28;20128;-85
2022/04/16 03:48:03;;;;;;;2.35;2.03;;;;;;;2.69;92.13;102704.31;5051725;28;20282;-85
2022/04/16 03:50:31;;;;;;;2.08;1.70;;;;;;;2.65;92.39;102698.06;5038039;28;20052;-85
2022/04/16 03:52:59;;;;;;;5.53;2.25;;;;;;;2.58;92.75;102706.25;5045987;28;20032;-84
2022/04/16 04:01:05;;;;;;;5.35;2.25;;;;;;;2.39;93.97;102712.97;5053016;28;20467;-85
2022/04/16 04:03:32;;;;;;;4.50;2.50;;;;;;;2.37;94.77;102711.09;5045382;28;20055;-85
2022/04/16 04:06:01;;;;;;;4.95;1.95;;;;;;;2.32;95.45;102716.00;5032362;28;20048;-85
2022/04/16 04:08:28;;;;;;;3.42;2.63;;;;;;;2.29;95.31;102718.41;5032721;28;20051;-85
2022/04/16 04:10:55;;;;;;;2.80;2.28;;;;;;;2.26;95.43;102719.13;5030251;28;20044;-85
2022/04/16 04:13:23;;;;;;;4.45;2.15;;;;;;;2.22;95.49;102724.03;5028580;28;20071;-85
2022/04/16 04:15:49;;;;;;;3.90;2.95;;;;;;;2.15;95.72;102727.91;5052271;28;20045;-85
2022/04/16 04:18:16;;;;;;;5.63;3.05;;;;;;;2.07;95.98;102730.06;5030623;28;20409;-85
2022/04/16 04:20:42;;;;;;;3.95;2.47;;;;;;;2.01;96.40;102729.72;5045076;28;20048;-85
2022/04/16 04:23:09;;;;;;;8.88;4.15;;;;;;;1.97;97.17;102735.50;5030236;28;20060;-85
2022/04/16 04:25:35;;;;;;;3.95;2.67;;;;;;;1.94;96.94;102737.88;5034382;28;20148;-85
2022/04/16 04:28:02;;;;;;;5.75;3.30;;;;;;;1.92;97.43;102742.06;5035295;28;20063;-85
2022/04/16 04:30:30;;;;;;;3.83;3.15;;;;;;;1.87;97.28;102741.78;5031621;28;20048;-85
2022/04/16 04:32:58;;;;;;;7.72;4.40;;;;;;;1.86;97.45;102742.56;5033295;28;20580;-85
2022/04/16 04:35:25;;;;;;;2.72;2.13;;;;;;;1.87;97.41;102746.06;5048511;28;20132;-85
2022/04/16 04:37:52;;;;;;;7.47;3.28;;;;;;;1.86;97.97;102747.75;5048986;28;20115;-85
2022/04/16 04:40:18;;;;;;;3.13;2.22;;;;;;;1.83;97.78;102747.56;5030405;28;20048;-85
2022/04/16 04:42:45;;;;;;;7.65;2.75;;;;;;;1.80;97.40;102753.44;5050325;28;20103;-86
2022/04/16 04:45:14;;;;;;;4.78;2.35;;;;;;;1.80;97.92;102755.16;5040896;28;20045;-85
2022/04/16 04:47:41;;;;;;;5.85;2.55;;;;;;;1.77;97.91;102748.09;5036999;28;20048;-85
2022/04/16 04:50:09;;;;;;;5.18;2.40;;;;;;;1.77;98.31;102748.09;5039710;28;20052;-84
2022/04/16 04:52:45;;;;;;;3.25;2.50;;;;;;;1.77;98.43;102753.25;5069437;28;20067;-83
2022/04/16 04:55:14;;;;;;;12.32;4.47;;;;;;;1.77;98.16;102754.94;5055426;28;20044;-84
2022/04/16 04:57:44;;;;;;;5.45;2.90;;;;;;;1.76;98.01;102758.31;5072523;28;20055;-84
2022/04/16 05:00:18;;;;;;;4.03;3.35;;;;;;;1.75;97.90;102764.28;5074169;28;20055;-84
2022/04/16 05:02:46;;;;;;;;;;;;;;;1.75;98.67;102764.28;5052820;28;20067;-83
2022/04/16 05:05:16;;;;;;;2.58;2.00;;;;;;;1.78;97.85;102772.22;5053691;28;19927;-84
2022/04/16 05:07:44;;;;;;;7.88;2.70;;;;;;;1.76;97.83;102781.53;5066944;28;20365;-83
2022/04/16 05:10:12;;;;;;;4.55;2.30;;;;;;;1.73;97.59;102784.84;5053826;28;20050;-84
2022/04/16 05:12:39;;;;;;;3.55;2.40;;;;;;;1.76;97.97;102786.72;5050829;28;20091;-84
2022/04/16 05:15:15;;;;;;;2.92;1.95;;;;;;;1.79;98.29;102781.75;5053897;28;20040;-83
2022/04/16 05:17:42;;;;;;;7.53;3.30;;;;;;;1.83;97.55;102798.34;5069657;28;20392;-84
2022/04/16 05:20:14;;;;;;;3.40;2.30;;;;;;;1.81;97.40;102796.56;5071031;28;20051;-85
2022/04/16 05:22:56;;;;;;;3.50;2.28;;;;;;;1.83;97.22;102808.66;5073843;28;20079;-84
2022/04/16 05:25:27;;;;;;;3.40;2.35;;;;;;;1.85;97.11;102818.25;5071422;28;20108;-84
2022/04/16 05:27:59;;;;;;;3.67;2.75;;;;;;;1.92;96.47;102832.47;5068774;28;20040;-84
2022/04/16 05:30:38;;;;;;;4.72;2.83;;;;;;;1.94;96.19;102825.69;5072089;28;20048;-84
2022/04/16 05:33:16;;;;;;;5.63;2.40;;;;;;;1.96;96.31;102832.75;5055785;28;20110;-85
2022/04/16 05:35:44;;;;;;;15.30;5.60;;;;;;;1.97;96.10;102839.69;5051723;28;20101;-84
2022/04/16 05:38:11;;;;;;;4.47;2.60;;;;;;;2.00;95.57;102838.13;5034179;28;20155;-82
2022/04/16 05:40:37;;;;;;;2.85;2.15;;;;;;;2.01;95.98;102837.28;5037369;28;20519;-82
2022/04/16 05:43:04;;;;;;;4.13;3.10;;;;;;;2.01;95.15;102839.88;5051774;28;20063;-83
2022/04/16 05:45:30;;;;;;;4.15;1.70;;;;;;;2.06;95.33;102846.22;5041354;28;20278;-83
2022/04/16 05:47:57;;;;;;;3.15;2.05;;;;;;;2.07;95.64;102850.59;5040256;28;20090;-83
2022/04/16 05:50:23;;;;;;;3.28;2.00;;;;;;;2.11;95.17;102849.97;5038784;28;20052;-82
2022/04/16 05:52:52;;;;;;;3.60;2.22;;;;;;;2.14;95.09;102851.06;5036990;28;20059;-82
2022/04/16 05:55:18;;;;;;;3.50;2.97;;;;;;;2.21;94.45;102852.34;5036888;28;20059;-83
2022/04/16 05:57:45;;;;;;;3.58;1.95;;;;;;;2.25;93.74;102850.84;5036191;28;20116;-80
2022/04/16 06:00:13;;;;;;;3.63;2.58;;;;;;;2.25;93.49;102854.28;5035734;28;20073;-82
2022/04/16 06:02:41;;;;;;;6.60;2.50;;;;;;;2.26;93.60;102850.91;5035533;28;20064;-84
2022/04/16 06:05:07;;;;;;;5.40;2.85;;;;;;;2.31;93.14;102849.50;5050796;28;20032;-84
2022/04/16 06:07:34;;;;;;;7.10;1.70;;;;;;;2.36;92.85;102848.88;5053476;28;20048;-86
2022/04/16 06:10:00;;;;;;;6.47;2.05;;;;;;;2.43;93.04;102861.41;5054533;28;20139;-83
2022/04/16 06:12:28;;;;;;;4.40;2.20;;;;;;;2.51;92.20;102856.69;5030003;28;20048;-80
2022/04/16 06:14:54;;;;;;;5.47;1.95;;;;;;;2.59;91.74;102858.03;5052833;28;20951;-83
2022/04/16 06:17:21;;;;;;;1.90;1.70;;;;;;;2.64;91.04;102854.91;5036016;28;20167;-83
2022/04/16 06:19:47;;;;;;;1.95;1.67;;;;;;;2.72;89.71;102850.19;5036532;28;20264;-85
2022/04/16 06:22:14;;;;;;;5.55;2.33;;;;;;;2.74;88.65;102847.72;5036351;28;20055;-82
2022/04/16 06:24:44;;;;;;;4.28;1.80;;;;;;;2.77;89.11;102853.94;5038931;28;20053;-83
2022/04/16 06:27:11;;;;;;;4.18;2.20;;;;;;;2.86;88.30;102844.94;5038396;28;20048;-83
2022/04/16 06:29:37;;;;;;;5.68;2.15;;;;;;;2.93;87.33;102842.81;5038265;28;20048;-85
2022/04/16 06:32:04;;;;;;;4.78;2.10;;;;;;;2.98;86.42;102851.69;5052534;28;20055;-82
2022/04/16 06:34:31;;;;;;;5.00;2.22;;;;;;;3.05;86.26;102842.63;5034631;28;20063;-82
2022/04/16 06:36:57;;;;;;;5.32;2.33;;;;;;;3.15;85.39;102838.84;5036173;28;21187;-83
2022/04/16 06:39:24;;;;;;;5.45;3.95;;;;;;;3.36;84.41;102846.91;5056818;28;20044;-83
2022/04/16 06:41:50;;;;;;;5.75;2.53;;;;;;;3.61;82.13;102830.16;5050692;28;20063;-82
2022/04/16 06:44:17;;;;;;;8.80;3.00;;;;;;;3.86;81.90;102831.47;5053794;28;20391;-81
2022/04/16 06:46:43;;;;;;;6.07;2.90;;;;;;;4.20;81.18;102839.38;5042504;28;20102;-83
2022/04/16 06:49:10;;;;;;;6.43;2.78;;;;;;;4.64;79.26;102821.69;5052962;28;20063;-84
2022/04/16 06:51:36;;;;;;;4.80;2.63;;;;;;;5.05;77.79;102833.25;5052938;28;20059;-84
2022/04/16 06:54:03;;;;;;;3.92;2.47;;;;;;;5.44;73.35;102828.19;5031728;28;20052;-84
2022/04/16 06:56:29;;;;;;;2.95;2.17;;;;;;;5.62;71.79;102833.38;5052389;28;20059;-86
2022/04/16 06:58:56;;;;;;;5.88;2.35;;;;;;;5.82;70.61;102824.72;5042897;28;20040;-81
2022/04/16 07:01:22;;;;;;;9.43;2.83;;;;;;;6.05;71.75;102829.28;5057601;28;20045;-83
2022/04/16 07:03:49;;;;;;;4.68;2.13;;;;;;;6.44;70.72;102826.66;5038255;28;20056;-83
2022/04/16 07:06:16;;;;;;;2.35;2.15;;;;;;;6.91;68.41;102826.88;5052404;28;20048;-81
2022/04/16 07:08:43;;;;;;;4.60;2.45;;;;;;;7.04;66.84;102833.47;5034742;28;20048;-82
2022/04/16 07:11:09;;;;;;;2.75;2.00;;;;;;;7.36;66.13;102825.16;5049954;28;20397;-81
2022/04/16 07:13:36;;;;;;;2.45;1.90;;;;;;;7.62;63.75;102824.44;5050880;28;20045;-80
2022/04/16 07:16:02;;;;;;;3.35;2.00;;;;;;;8.03;63.48;102828.53;5056302;28;20047;-85
2022/04/16 07:18:29;;;;;;;3.83;1.88;;;;;;;8.48;62.46;102838.88;5050682;28;20044;-81
2022/04/16 07:20:55;;;;;;;9.30;2.70;;;;;;;8.71;59.90;102834.47;5037016;28;20056;-83
2022/04/16 07:23:22;;;;;;;2.97;2.33;;;;;;;9.01;60.17;102836.31;5032620;28;20048;-82
2022/04/16 07:25:48;;;;;;;6.45;4.22;;;;;;;9.20;57.75;102840.41;5029959;28;21011;-85
2022/04/16 07:28:21;;;;;;;2.65;1.45;;;;;;;9.57;56.48;102848.53;5035274;28;20052;-83
2022/04/16 07:30:54;;;;;;;1.73;1.35;;;;;;;9.43;54.60;102843.75;5054781;28;20056;-82
2022/04/16 07:33:21;;;;;;;1.35;1.10;;;;;;;9.43;53.46;102848.09;5034865;28;20048;-82
2022/04/16 07:35:48;;;;;;;1.25;1.20;;;;;;;9.32;55.39;102849.47;5049252;28;20033;-84
2022/04/16 07:38:14;;;;;;;0.80;0.75;;;;;;;9.54;54.01;102843.19;5048938;28;20049;-82
2022/04/16 07:40:41;;;;;;;0.65;0.65;;;;;;;9.70;51.20;102857.59;5035386;28;20040;-82
2022/04/16 07:43:08;;;;;;;2.65;0.98;;;;;;;9.40;51.52;102861.09;5034015;28;20587;-83
2022/04/16 07:45:35;;;;;;;1.08;0.80;;;;;;;9.50;51.84;102857.88;5049833;28;20039;-82
2022/04/16 07:48:01;;;;;;;3.55;1.10;;;;;;;9.95;50.64;102854.00;5032687;28;20059;-81
2022/04/16 07:50:28;;;;;;;1.77;0.70;;;;;;;10.29;50.91;102856.72;5048114;28;20455;-82
2022/04/16 07:52:55;;;;;;;1.20;0.63;;;;;;;10.75;49.41;102865.81;5031476;28;20391;-84
2022/04/16 07:55:22;;;;;;;2.75;1.50;;;;;;;10.81;48.89;102868.59;5032343;28;20598;-81
2022/04/16 07:57:48;;;;;;;1.27;0.80;;;;;;;10.99;46.93;102860.31;5051084;28;20045;-82
2022/04/16 08:00:15;;;;;;;2.65;1.02;;;;;;;11.03;47.21;102870.03;5030690;28;20071;-81
2022/04/16 08:02:42;;;;;;;3.50;1.80;;;;;;;11.10;47.07;102865.81;5034025;28;20090;-84
2022/04/16 08:05:09;;;;;;;1.30;0.85;;;;;;;11.42;46.77;102863.09;5049077;28;20504;-84
2022/04/16 08:07:36;;;;;;;1.10;0.70;;;;;;;11.89;46.86;102865.84;5033485;28;20056;-85
2022/04/16 08:10:02;;;;;;;1.75;1.00;;;;;;;12.50;45.29;102869.69;5047978;28;20094;-83
2022/04/16 08:12:28;;;;;;;6.15;0.88;;;;;;;12.74;44.33;102872.78;5028438;28;20055;-83
2022/04/16 08:14:55;;;;;;;1.65;0.93;;;;;;;13.05;44.24;102865.41;5032605;28;20366;-83
2022/04/16 08:17:22;;;;;;;0.82;0.82;;;;;;;13.50;42.63;102871.38;5034476;28;20041;-82
2022/04/16 08:19:49;;;;;;;1.77;0.82;;;;;;;13.87;41.68;102866.63;5030605;28;20391;-83
2022/04/16 08:22:21;;;;;;;1.00;0.70;;;;;;;14.19;41.42;102870.50;5030955;28;20059;-84
2022/04/16 08:25:43;;;;;;;1.95;0.93;;;;;;;14.05;40.64;102870.34;5032538;28;20079;-82
2022/04/16 08:27:45;;;;;;;;;;;;;;;14.00;39.42;102874.66;5053423;28;20068;-84
2022/04/16 08:30:13;;;;;;;1.85;0.70;;;;;;;14.10;39.43;102873.03;5053973;28;19920;-83
2022/04/16 08:32:42;;;;;;;2.65;0.70;;;;;;;14.32;39.58;102868.91;5033129;28;20048;-81
2022/04/16 08:35:13;;;;;;;1.08;0.50;;;;;;;14.31;38.46;102882.94;5036670;28;20093;-81
2022/04/16 08:37:40;;;;;;;1.33;1.02;;;;;;;14.10;39.90;102871.28;5034497;28;20478;-84
2022/04/16 08:40:08;;;;;;;1.60;0.80;;;;;;;14.38;38.39;102882.16;5030798;28;20055;-81
2022/04/16 08:42:38;;;;;;;1.25;0.80;;;;;;;14.75;37.67;102877.28;5032140;28;20044;-84
2022/04/16 08:45:08;;;;;;;0.85;0.65;;;;;;;14.90;38.55;102881.81;5030777;28;20064;-84
2022/04/16 08:47:36;;;;;;;0.85;0.85;;;;;;;15.57;36.85;102874.38;5049206;28;20048;-85
2022/04/16 08:50:05;;;;;;;1.40;0.50;;;;;;;15.90;34.94;102871.03;5048781;28;20040;-82
2022/04/16 08:52:34;;;;;;;0.57;0.57;;;;;;;16.44;35.67;102872.97;5031409;28;20068;-82
2022/04/16 08:55:05;;;;;;;2.95;0.60;;;;;;;16.97;34.58;102866.91;5030831;28;20037;-84
2022/04/16 08:57:31;;;;;;;0.63;0.60;;;;;;;17.31;33.28;102872.16;5031924;28;20049;-84
2022/04/16 09:00:01;;;;;;;0.60;0.60;;;;;;;17.31;33.12;102871.25;5024911;28;20049;-83
2022/04/16 09:02:28;;;;;;;2.03;0.40;;;;;;;17.24;32.98;102864.22;5029824;28;20156;-81
2022/04/16 09:05:21;;;;;;;1.52;0.65;;;;;;;16.82;32.80;102862.44;5027268;28;20044;-84
2022/04/16 09:07:55;;;;;;;1.08;0.52;;;;;;;17.16;33.00;102858.94;5044071;28;20056;-83
2022/04/16 09:10:22;;;;;;;2.55;0.40;;;;;;;17.32;33.06;102865.09;5020241;28;20072;-82
2022/04/16 09:12:54;;;;;;;1.60;0.85;;;;;;;16.74;32.74;102866.84;5023449;28;20045;-85
2022/04/16 09:15:23;;;;;;;1.23;0.68;;;;;;;16.76;33.00;102869.50;5045504;28;20045;-83
2022/04/16 09:18:05;;;;;;;1.75;0.80;;;;;;;16.86;32.55;102858.03;5045706;28;20053;-81
2022/04/16 09:20:35;;;;;;;2.00;0.60;;;;;;;17.48;31.75;102852.69;5025932;28;20508;-82
2022/04/16 09:23:14;;;;;;;1.67;0.60;;;;;;;18.08;31.96;102859.56;5043866;28;20059;-82
2022/04/16 09:25:43;;;;;;;1.10;0.50;;;;;;;18.98;30.52;102860.75;5026144;28;20577;-83
2022/04/16 09:28:10;;;;;;;2.20;0.40;;;;;;;19.65;30.01;102855.59;5021617;28;20044;-85
2022/04/16 09:30:37;;;;;;;1.17;0.63;;;;;;;19.99;28.33;102852.56;5030189;28;20404;-82
2022/04/16 09:33:05;;;;;;;1.45;0.50;;;;;;;19.79;27.91;102854.53;5018567;28;20518;-82
2022/04/16 09:35:37;;;;;;;1.05;0.40;;;;;;;19.67;28.17;102855.59;5043488;28;20119;-83
2022/04/16 09:38:06;;;;;;;0.73;0.45;;;;;;;19.99;27.60;102863.19;5028535;28;20320;-87
2022/04/16 09:40:36;;;;;;;1.02;0.70;;;;;;;19.74;28.37;102857.28;5029290;28;20406;-82
2022/04/16 09:43:07;;;;;;;0.50;0.30;;;;;;;20.35;26.79;102857.38;5011380;28;20052;-84
2022/04/16 09:45:38;;;;;;;0.68;0.45;;;;;;;20.16;27.01;102857.63;5032251;28;20427;-83
2022/04/16 09:48:11;;;;;;;0.95;0.60;;;;;;;18.98;27.82;102867.81;5045042;28;20060;-85
2022/04/16 09:50:40;;;;;;;2.90;0.70;;;;;;;19.57;27.78;102860.13;5045064;28;20045;-83
2022/04/16 09:53:07;;;;;;;2.45;0.57;;;;;;;20.04;26.71;102855.16;5043953;28;20862;-82
2022/04/16 09:55:34;;;;;;;0.40;0.40;;;;;;;20.01;26.32;102852.53;5032029;28;20436;-82
2022/04/16 09:58:03;;;;;;;0.45;0.35;;;;;;;20.39;25.79;102848.47;5045628;28;20079;-82
2022/04/16 10:00:36;;;;;;;1.95;0.40;;;;;;;20.21;26.11;102849.59;5045632;28;20052;-83
2022/04/16 10:03:07;;;;;;;0.35;0.30;;;;;;;20.57;25.04;102860.59;5041824;28;20056;-83
2022/04/16 10:05:34;;;;;;;0.77;0.40;;;;;;;21.13;25.27;102865.91;5025881;28;20059;-84
2022/04/16 10:08:01;;;;;;;0.30;0.30;;;;;;;21.30;24.52;102860.25;5028266;28;20105;-82
2022/04/16 10:10:30;;;;;;;2.85;0.40;;;;;;;21.40;24.07;102863.59;5044969;28;20040;-83
2022/04/16 10:13:09;;;;;;;0.80;0.40;;;;;;;21.53;23.78;102861.56;5027214;28;20388;-80
2022/04/16 10:15:59;;;;;;;0.80;0.57;;;;;;;21.99;23.63;102849.09;5046212;28;20057;-82
2022/04/16 10:18:27;;;;;;;2.47;0.20;;;;;;;22.45;23.92;102844.53;5047485;28;20041;-84
2022/04/16 10:21:01;;;;;;;0.85;0.40;;;;;;;22.85;22.88;102853.34;5045099;28;20052;-84
2022/04/16 10:23:37;;;;;;;0.22;0.22;;;;;;;23.42;22.62;102852.72;5023844;28;20502;-84
2022/04/16 10:26:14;;;;;;;1.08;0.45;;;;;;;23.64;22.29;102860.13;5043346;28;20052;-84
2022/04/16 10:28:42;;;;;;;0.52;0.30;;;;;;;23.42;21.39;102858.06;5045718;28;20057;-84
2022/04/16 10:31:29;;;;;;;0.40;0.40;;;;;;;20.99;22.52;102866.13;5036609;28;20553;-83
2022/04/16 10:34:01;;;;;;;0.88;0.55;;;;;;;21.07;23.96;102854.47;5025008;28;20052;-84
2022/04/16 10:36:41;;;;;;;0.17;0.17;;;;;;;22.24;22.55;102853.88;5044590;28;20037;-83
2022/04/16 10:39:20;;;;;;;2.08;0.40;;;;;;;22.61;22.73;102850.38;5026341;28;20213;-82
2022/04/16 10:42:04;;;;;;;0.88;0.28;;;;;;;23.66;20.67;102858.25;5027525;28;20041;-83
2022/04/16 10:44:49;;;;;;;1.75;0.40;;;;;;;24.09;20.28;102851.69;5020149;28;20052;-84
2022/04/16 10:47:17;;;;;;;0.28;0.25;;;;;;;24.08;20.31;102851.72;5030206;28;20107;-86
2022/04/16 10:49:44;;;;;;;0.30;0.30;;;;;;;24.51;20.07;102845.00;5046156;28;20788;-83
2022/04/16 10:52:24;;;;;;;0.32;0.32;;;;;;;23.60;20.26;102853.97;5044936;28;20076;-83
2022/04/16 10:55:06;;;;;;;0.30;0.30;;;;;;;23.89;20.87;102852.22;5020069;28;20048;-83
2022/04/16 10:57:33;;;;;;;1.10;0.55;;;;;;;23.71;20.86;102850.13;5028919;28;20082;-83
2022/04/16 11:00:13;;;;;;;0.90;0.90;;;;;;;24.28;19.60;102854.63;5027247;28;20148;-82
2022/04/16 11:02:39;;;;;;;1.83;0.88;;;;;;;24.65;19.57;102852.56;5028064;28;20151;-81
2022/04/16 11:05:09;;;;;;;0.32;0.32;;;;;;;24.74;18.83;102848.72;5023959;28;20403;-85
2022/04/16 11:07:42;;;;;;;2.25;1.55;;;;;;;24.90;19.05;102844.59;5040553;28;20057;-83
2022/04/16 11:10:12;;;;;;;1.63;0.40;;;;;;;24.79;19.11;102841.41;5041582;28;20319;-83
2022/04/16 11:12:40;;;;;;;0.60;0.60;;;;;;;25.09;19.25;102852.84;5048030;28;20427;-83
2022/04/16 11:15:18;;;;;;;0.35;0.30;;;;;;;25.92;18.84;102850.72;5028137;28;20052;-84
2022/04/16 11:17:44;;;;;;;0.47;0.47;;;;;;;26.70;17.94;102853.84;5040857;28;20450;-85
2022/04/16 11:20:11;;;;;;;1.48;0.35;;;;;;;26.74;17.79;102839.41;5029722;28;20250;-83
2022/04/16 11:22:39;;;;;;;0.68;0.45;;;;;;;26.44;17.36;102846.91;5028627;28;20076;-84
2022/04/16 11:25:08;;;;;;;0.60;0.50;;;;;;;26.57;17.62;102848.16;5015564;28;20056;-81
2022/04/16 11:36:13;;;;;;;0.75;0.50;;;;;;;27.18;16.49;102841.06;4996487;28;20045;-84
2022/04/16 11:38:43;;;;;;;0.80;0.80;;;;;;;27.05;17.15;102841.63;5048148;28;20060;-83
2022/04/16 11:41:12;;;;;;;0.52;0.50;;;;;;;26.78;17.19;102830.28;5045840;28;20064;-81
2022/04/16 11:43:51;;;;;;;1.20;0.73;;;;;;;26.97;16.54;102824.09;5046323;28;20091;-83
2022/04/16 11:46:18;;;;;;;1.25;0.40;;;;;;;26.97;17.24;102829.47;5034028;28;20049;-82
2022/04/16 11:48:50;;;;;;;0.50;0.50;;;;;;;27.39;16.23;102824.00;5047629;28;20049;-82
2022/04/16 11:51:20;;;;;;;0.50;0.50;;;;;;;26.83;16.00;102828.25;5022755;28;20052;-83
2022/04/16 11:53:51;;;;;;;1.25;0.40;;;;;;;26.12;17.07;102824.94;5024016;28;20074;-82
2022/04/16 11:56:24;;;;;;;0.85;0.28;;;;;;;26.23;16.37;102820.88;5031624;28;20386;-83